Date,TemperatureHighF,TemperatureAvgF,TemperatureLowF,DewpointHighF,DewpointAvgF,DewpointLowF,HumidityHigh,HumidityAvg,HumidityLow,PressureMaxIn,PressureMinIn,WindSpeedMaxMPH,WindSpeedAvgMPH,GustSpeedMaxMPH,PrecipitationSumIn
2013-1-1,36.9,34.9,28.4,36.3,32.6,22.0,98,91,75,30.03,29.82,17,6,17,0.13
2013-1-2,34.7,27.7,23.2,22.1,18.3,15.3,80,68,47,30.12,30.00,9,3,9,0.00
2013-1-3,41.0,29.1,20.3,25.3,20.0,15.6,87,70,46,30.21,30.03,12,3,12,0.00
2013-1-4,43.5,31.3,22.6,30.6,22.3,18.8,92,71,46,30.27,30.15,13,3,13,0.00
2013-1-5,45.9,35.6,26.1,35.6,29.6,20.6,92,79,58,30.18,30.03,12,4,12,0.00
2013-1-6,46.2,35.9,26.6,36.4,26.8,19.9,98,72,41,30.18,29.97,18,4,18,0.00
2013-1-7,43.7,31.2,23.0,28.8,23.3,18.3,90,73,48,30.24,30.00,10,3,10,0.00
2013-1-8,53.8,40.1,27.5,40.6,32.9,23.5,90,76,55,30.06,29.94,12,3,12,0.00
2013-1-9,55.9,48.9,45.9,47.7,43.6,39.8,98,82,67,30.18,30.00,13,3,13,0.25
2013-1-10,64.4,56.1,47.3,63.8,55.5,46.8,98,98,96,30.12,29.68,28,6,28,0.49
2013-1-11,62.8,55.6,49.1,58.3,51.8,48.6,98,88,62,29.79,29.68,22,8,22,0.00
2013-1-12,67.3,61.8,46.6,66.7,61.1,45.9,98,98,88,29.74,29.47,30,7,30,1.46
2013-1-13,46.4,35.8,27.1,45.7,33.2,20.3,98,90,73,30.12,29.56,20,9,20,0.95
2013-1-14,30.9,26.4,23.0,20.6,15.5,12.4,78,63,50,30.24,30.09,21,8,21,0.00
2013-1-15,30.6,27.2,23.5,26.4,20.2,16.1,90,75,57,30.12,29.88,23,8,23,0.00
2013-1-16,38.8,32.0,25.0,21.3,18.2,13.9,70,57,39,29.97,29.88,12,4,12,0.00
2013-1-17,48.6,36.1,25.2,30.3,22.4,16.4,78,58,48,30.27,29.91,22,6,22,0.08
2013-1-18,46.6,35.2,24.1,32.1,26.7,18.0,80,71,55,30.33,30.09,17,5,17,0.00
2013-1-19,55.6,43.5,31.5,38.2,32.5,25.7,87,66,48,30.09,29.88,22,7,22,0.00
2013-1-20,48.9,42.2,34.0,32.5,26.9,16.4,70,55,36,30.09,29.94,12,4,12,0.00
2013-1-21,38.1,31.6,27.3,17.0,12.7,9.1,57,46,33,30.18,30.00,17,5,17,0.00
2013-1-22,32.9,27.6,23.5,11.7,8.4,3.9,55,44,35,30.24,30.12,10,3,10,0.00
2013-1-23,49.8,34.0,21.4,29.8,22.2,10.9,82,63,43,30.15,29.94,16,4,16,0.00
2013-1-24,37.9,33.4,28.9,33.7,16.1,9.6,87,49,41,30.27,30.00,17,5,17,0.00
2013-1-25,45.9,36.9,31.6,29.8,25.6,16.4,79,64,47,30.03,29.88,14,4,14,0.05
2013-1-26,50.0,41.5,32.5,31.1,26.9,22.4,82,58,38,30.12,30.03,9,3,9,0.00
2013-1-27,57.2,48.2,40.3,53.0,39.1,27.8,94,71,59,30.06,29.85,14,4,14,0.00
2013-1-28,66.4,60.9,55.0,61.9,58.1,53.0,98,91,82,29.88,29.79,18,9,18,0.00
2013-1-29,71.8,63.9,54.3,62.3,58.7,50.6,98,84,59,29.79,29.26,31,12,31,1.32
2013-1-30,54.3,50.2,32.9,53.8,43.8,16.9,98,81,46,29.82,29.29,30,9,30,0.13
2013-1-31,51.6,36.5,26.4,30.5,20.9,3.0,75,54,35,30.15,29.79,31,8,31,0.00
2013-2-1,32.4,24.8,17.4,13.7,5.8,-2.3,63,44,36,30.33,30.09,19,5,19,0.00
2013-2-2,50.0,34.3,24.4,28.3,20.9,13.7,73,58,41,30.09,29.91,15,4,15,0.00
2013-2-3,52.7,43.9,35.2,28.4,21.8,13.1,58,43,23,29.97,29.85,29,6,29,0.00
2013-2-4,46.4,41.5,35.4,41.2,32.3,19.7,94,71,48,29.85,29.68,18,5,18,0.08
2013-2-5,55.9,43.1,36.1,46.4,39.7,34.8,98,89,65,29.85,29.71,13,3,13,0.00
2013-2-6,54.9,45.4,35.8,42.2,35.0,30.5,98,69,46,30.03,29.82,10,3,10,0.00
2013-2-7,62.2,53.0,44.6,55.6,45.5,33.4,98,76,58,29.85,29.68,17,4,17,0.13
2013-2-8,53.4,43.7,34.2,50.7,32.6,26.5,91,65,49,30.12,29.74,26,7,26,0.00
2013-2-9,46.4,38.8,32.7,33.4,29.0,26.9,84,68,52,30.12,29.88,12,4,12,0.00
2013-2-10,61.5,55.8,51.1,58.3,52.6,31.0,98,90,45,29.71,29.50,37,11,37,0.29
2013-2-11,55.6,46.0,36.7,31.7,28.0,23.5,71,50,35,29.97,29.71,18,5,18,0.00
2013-2-12,48.6,41.2,32.2,38.5,32.3,27.3,86,71,52,29.94,29.65,13,4,13,0.08
2013-2-13,50.5,41.1,37.4,42.8,37.7,35.1,97,88,60,29.79,29.65,20,9,20,0.16
2013-2-14,59.7,47.7,36.3,42.4,36.1,28.4,97,67,39,29.82,29.74,17,5,17,0.00
2013-2-15,50.5,46.4,41.7,29.1,26.0,19.6,57,45,31,30.00,29.82,17,6,17,0.00
2013-2-16,39.9,35.3,31.1,17.9,11.4,6.0,52,37,29,30.03,30.00,14,4,14,0.00
2013-2-17,53.6,41.8,33.4,32.0,25.8,17.9,66,54,38,30.03,29.79,20,7,20,0.00
2013-2-18,54.0,48.0,42.1,51.7,41.8,30.7,95,79,63,29.79,29.50,33,11,33,0.54
2013-2-19,48.4,39.1,31.1,35.3,18.7,10.7,71,45,27,30.06,29.76,19,6,20,0.00
2013-2-20,35.4,31.3,27.9,17.4,11.7,7.8,54,44,35,30.18,30.00,9,4,9,0.00
2013-2-21,33.4,31.9,29.7,32.9,27.6,17.4,98,85,55,30.00,29.59,14,3,14,0.00
2013-2-22,45.1,37.1,32.2,42.0,33.8,27.1,98,88,65,29.88,29.65,17,4,17,0.09
2013-2-23,41.0,31.9,27.3,27.1,23.8,20.8,80,72,53,29.88,29.79,12,4,12,0.00
2013-2-25,47.7,46.4,45.3,47.1,45.9,44.8,98,98,98,29.20,29.14,10,4,10,0.34
2013-2-26,50.7,43.6,38.8,50.0,39.8,29.9,98,87,69,29.59,29.12,26,9,26,0.12
2013-2-27,44.8,40.0,36.3,34.4,27.9,22.7,74,62,50,29.76,29.59,20,7,20,0.00
2013-2-28,45.1,39.1,36.0,26.1,23.9,21.3,62,54,44,29.91,29.76,17,6,17,0.00
2013-3-1,41.0,35.8,32.4,25.6,23.5,19.5,75,61,46,29.97,29.88,18,7,18,0.00
2013-3-2,36.0,33.5,29.5,26.3,18.5,14.7,78,54,43,30.03,29.94,21,10,21,0.00
2013-3-3,38.5,37.1,36.0,26.2,25.3,24.7,66,62,59,29.85,29.82,9,4,9,0.00
2013-3-4,57.0,48.1,35.8,44.9,34.6,24.0,68,60,48,29.82,29.50,23,6,23,0.00
2013-3-5,54.3,45.0,35.6,47.4,30.6,15.4,97,61,29,29.97,29.53,34,10,34,0.25
2013-3-6,47.1,37.9,31.6,24.2,19.6,15.6,73,48,38,30.15,29.97,22,6,22,0.00
2013-3-7,49.8,39.1,30.2,29.7,27.4,23.5,79,64,43,30.21,30.06,12,3,12,0.00
2013-3-8,57.0,44.4,32.2,33.5,29.6,26.7,81,58,35,30.18,29.94,13,3,13,0.00
2013-3-9,69.8,56.7,46.4,37.9,33.8,28.5,63,44,24,29.94,29.68,29,7,29,0.00
2013-3-10,62.4,56.8,51.6,57.5,50.8,36.1,98,81,48,29.68,29.53,33,11,33,0.54
2013-3-11,35.6,35.6,35.6,23.9,23.9,23.9,62,62,62,29.79,29.76,1,1,0,0.00
2013-3-12,56.7,50.3,46.2,27.4,23.9,22.3,43,36,27,30.00,29.88,15,5,15,0.00
2013-3-13,50.9,41.5,32.5,22.6,18.6,13.2,56,41,26,30.21,30.00,21,6,21,0.00
2013-3-14,60.1,44.4,28.8,35.5,27.2,17.4,72,52,34,30.21,29.91,22,6,22,0.00
2013-3-15,75.7,59.8,42.8,46.7,41.5,33.9,75,54,33,29.91,29.62,25,7,25,0.00
2013-3-16,76.8,64.0,48.9,51.7,44.8,36.6,67,51,39,29.71,29.62,21,8,21,0.00
2013-3-17,48.9,44.2,40.5,45.5,40.0,34.6,98,86,67,29.79,29.50,18,5,18,0.04
2013-3-18,57.9,48.4,41.0,49.6,41.2,30.5,98,78,51,29.82,29.50,20,6,20,0.04
2013-3-19,57.2,45.0,35.1,31.1,24.3,14.9,79,49,25,30.00,29.82,14,5,14,0.00
2013-3-21,46.6,35.7,27.0,28.8,15.4,6.9,84,46,27,29.91,29.76,12,3,12,0.00
2013-3-22,43.3,38.6,33.1,33.9,31.7,27.4,98,77,56,29.79,29.71,9,3,9,0.58
2013-3-23,51.8,45.2,40.6,45.4,36.8,30.2,95,73,59,29.76,29.50,12,4,12,0.09
2013-3-24,49.5,43.0,35.4,48.0,35.5,21.1,98,76,50,29.74,29.35,35,8,35,0.16
2013-3-25,42.1,36.3,32.0,25.4,19.6,16.5,68,51,39,30.03,29.74,27,10,27,0.00
2013-3-26,49.1,36.1,29.8,25.2,22.1,17.6,78,58,31,30.15,30.03,16,6,16,0.00
2013-3-27,58.5,42.6,28.9,31.1,25.6,18.3,72,53,30,30.21,30.06,19,4,19,0.00
2013-3-28,68.7,52.4,37.6,37.8,32.9,27.4,75,51,24,30.12,29.97,17,4,17,0.00
2013-3-29,62.8,52.8,45.9,52.7,43.1,34.8,92,71,49,30.03,29.94,14,4,14,0.13
2013-3-30,55.9,49.5,42.4,55.1,48.5,40.9,98,96,90,29.97,29.74,11,2,11,0.12
2013-3-31,66.7,56.0,47.5,56.3,51.2,44.4,98,85,53,29.76,29.65,15,3,15,0.16
2013-4-1,62.8,53.3,47.1,49.0,38.6,30.4,93,59,35,29.94,29.71,14,5,14,0.00
2013-4-2,47.1,43.3,41.7,30.0,24.6,21.1,53,47,42,30.09,29.94,15,5,15,0.00
2013-4-3,52.9,46.0,37.8,25.9,22.0,18.9,54,40,27,30.09,29.94,13,5,13,0.00
2013-4-4,54.5,46.9,42.6,41.5,31.9,21.2,93,57,38,29.94,29.79,12,4,12,0.00
2013-4-5,72.1,47.4,33.3,41.5,33.9,24.9,93,67,23,29.94,29.85,16,3,16,0.00
2013-4-6,74.7,57.6,40.8,44.7,39.9,35.3,82,55,25,29.88,29.68,29,7,29,0.00
2013-4-7,74.8,64.5,56.8,55.6,51.4,43.5,78,63,49,29.79,29.68,22,8,22,0.00
2013-4-8,76.6,66.4,58.1,59.5,54.7,51.6,83,68,44,29.74,29.65,30,7,30,0.00
2013-4-9,85.3,66.8,60.6,64.9,58.1,54.2,90,75,41,29.76,29.65,33,7,33,0.00
2013-4-10,84.6,72.6,65.1,67.7,63.3,57.2,96,74,47,29.71,29.44,32,10,32,0.80
2013-4-11,65.7,49.6,41.9,64.6,42.4,33.4,97,78,47,29.59,29.47,22,6,22,0.12
2013-4-12,67.5,51.0,35.1,41.2,33.7,26.5,88,57,24,29.79,29.59,19,6,19,0.00
2013-4-13,70.5,53.8,37.8,41.3,35.9,29.1,77,53,32,29.88,29.71,14,4,14,0.00
2013-4-14,76.3,60.9,46.4,54.7,47.8,40.1,84,64,42,29.71,29.50,31,8,31,0.00
2013-4-15,81.3,67.7,57.0,62.0,57.3,50.5,88,71,44,29.71,29.59,26,8,26,0.00
2013-4-16,90.1,75.1,63.1,71.2,65.4,59.2,95,74,42,29.82,29.68,31,7,31,0.00
2013-4-17,87.4,73.4,62.6,71.8,64.9,59.6,91,77,43,29.85,29.59,28,6,28,0.00
2013-4-18,79.7,65.9,44.1,66.0,58.1,33.8,96,77,55,29.65,29.44,39,13,39,2.07
2013-4-19,59.5,47.8,39.9,34.4,27.0,21.4,69,46,25,29.91,29.65,22,7,22,0.00
2013-4-20,68.9,52.3,34.9,43.2,34.5,26.2,82,54,26,30.06,29.91,14,3,14,0.00
2013-4-21,68.5,56.0,46.4,38.4,34.7,28.2,71,47,24,30.15,30.00,14,3,14,0.00
2013-4-22,77.4,49.4,42.8,45.5,36.8,33.9,74,63,26,30.03,29.79,21,3,21,0.00
2013-4-23,77.7,65.9,50.0,61.0,53.2,44.0,92,66,41,29.82,29.65,25,7,25,0.00
2013-4-24,60.6,49.6,41.4,44.1,37.0,29.2,92,64,33,30.06,29.74,22,7,22,0.13
2013-4-25,70.7,53.0,35.2,41.5,33.3,26.2,88,53,23,30.18,30.06,16,3,16,0.00
2013-4-26,59.5,52.4,48.2,50.7,45.9,39.2,98,79,53,30.18,30.00,13,3,13,0.41
2013-4-27,61.5,56.6,51.1,60.7,55.8,50.5,98,97,92,30.03,29.71,15,4,15,0.50
2013-4-28,69.6,60.7,52.2,56.3,52.8,47.5,98,77,48,29.80,29.71,14,4,14,0.00
2013-4-29,79.0,62.8,45.5,60.2,53.0,0.0,98,73,45,29.79,29.65,20,5,20,0.00
2013-4-30,82.8,69.3,56.3,59.0,53.5,45.5,89,62,29,29.76,29.68,17,6,17,0.00
2013-5-1,84.4,69.9,58.5,62.1,56.6,49.2,86,65,40,29.85,29.74,20,4,20,0.00
2013-5-2,75.7,65.3,57.6,62.0,58.5,53.9,95,80,50,29.91,29.79,10,3,10,1.04
2013-5-3,58.5,44.2,36.9,56.7,43.5,35.8,98,97,94,29.79,29.68,20,6,20,2.07
2013-5-4,58.5,40.7,33.8,46.5,37.8,33.3,98,91,51,29.74,29.68,16,3,16,0.04
2013-5-5,59.0,51.5,45.5,51.7,44.8,38.2,94,79,48,29.74,29.68,18,6,18,0.04
2013-5-6,70.3,60.5,53.4,55.8,52.8,48.7,98,77,48,29.76,29.65,17,5,17,0.00
2013-5-7,76.8,65.3,55.4,57.6,53.0,48.7,90,67,39,29.82,29.74,10,3,10,0.00
2013-5-8,83.7,69.3,55.2,62.3,55.2,51.4,90,64,37,29.85,29.76,13,3,13,0.00
2013-5-9,63.5,63.4,63.3,56.2,55.5,54.7,77,75,74,29.79,29.79,4,2,4,0.00
2013-5-11,76.6,66.4,57.4,55.1,46.9,26.6,85,53,24,29.94,29.76,18,6,18,0.00
2013-5-12,68.0,58.4,46.8,36.1,29.8,22.3,62,36,23,30.03,29.91,15,5,15,0.00
2013-5-13,77.2,63.1,48.6,49.0,41.0,30.5,70,47,25,30.03,29.88,16,3,16,0.00
2013-5-14,86.7,73.7,59.0,56.4,52.3,48.5,72,49,32,29.88,29.74,18,7,18,0.00
2013-5-15,84.9,72.6,64.4,59.3,49.7,46.4,58,45,31,29.85,29.71,20,6,20,0.00
2013-5-16,81.0,71.6,66.2,61.4,56.5,50.9,76,60,41,29.76,29.68,17,5,17,0.00
2013-5-17,78.1,69.9,65.3,69.8,63.7,57.8,93,81,66,29.74,29.68,10,3,10,0.12
2013-5-18,88.9,74.8,62.1,70.9,66.2,60.4,98,77,48,29.79,29.68,14,3,14,0.00
2013-5-19,90.1,79.6,70.7,72.1,66.4,59.3,95,68,37,29.74,29.62,32,7,32,0.00
2013-5-20,73.9,72.5,71.2,68.4,67.0,65.3,89,83,75,29.68,29.65,17,8,17,0.00
2013-5-21,80.6,68.0,63.7,72.7,64.9,59.4,98,90,61,29.74,29.59,17,5,17,1.99
2013-5-26,86.5,78.3,67.1,58.2,51.0,45.8,58,40,29,29.91,29.82,18,5,18,0.00
2013-5-27,70.3,66.0,62.8,62.7,54.4,51.8,82,66,58,29.85,29.82,10,2,10,0.00
2013-5-28,88.0,82.4,70.3,65.3,58.3,53.0,77,44,37,29.82,29.71,20,8,20,0.00
2013-5-29,88.5,77.9,66.9,65.9,60.2,54.7,75,56,35,29.79,29.68,30,7,30,0.00
2013-5-30,88.5,77.9,72.5,70.1,66.1,61.1,90,69,42,29.76,29.65,27,10,27,0.05
2013-5-31,84.2,74.6,66.0,76.9,70.4,64.6,98,87,68,29.76,29.56,30,8,30,2.66
2013-6-1,75.9,70.5,65.5,73.2,69.1,64.0,98,95,83,29.74,29.62,20,5,20,1.16
2013-6-2,77.7,69.9,63.9,66.5,60.0,52.0,98,74,46,29.79,29.71,17,5,17,0.00
2013-6-3,78.4,68.8,61.9,58.9,55.5,50.4,84,65,42,29.85,29.74,10,4,10,0.00
2013-6-4,83.3,71.5,59.7,61.7,56.7,52.3,88,62,39,29.82,29.74,10,3,10,0.00
2013-6-5,89.4,76.9,66.9,67.8,62.6,57.9,87,64,38,29.76,29.59,24,3,24,0.25
2013-6-6,83.7,74.3,67.3,66.8,60.5,55.4,93,65,41,29.65,29.56,14,5,14,0.00
2013-6-7,81.0,72.8,63.9,58.2,50.6,44.1,65,47,29,29.71,29.62,15,6,15,0.00
2013-6-8,86.9,72.7,59.7,59.7,53.9,48.9,81,55,31,29.76,29.68,14,3,14,0.00
2013-6-9,86.2,72.0,63.0,69.3,62.9,54.9,91,74,50,29.76,29.62,18,4,18,0.16
2013-6-10,91.2,77.3,63.7,70.3,63.7,58.6,95,67,34,29.71,29.65,19,4,19,0.00
2013-6-11,95.9,82.5,68.5,72.4,66.9,61.7,89,63,36,29.79,29.68,13,4,13,0.00
2013-6-12,94.6,82.7,74.7,72.4,66.7,60.3,82,60,38,29.82,29.65,23,6,23,0.00
2013-6-13,89.1,82.3,71.4,70.8,62.8,55.0,74,53,34,29.76,29.68,18,6,18,0.00
2013-6-14,89.8,77.8,66.7,65.1,54.5,43.9,83,50,22,29.85,29.74,12,4,12,0.00
2013-6-15,92.1,77.7,63.1,64.6,58.8,52.7,81,56,28,29.85,29.74,16,3,16,0.00
2013-6-16,94.5,78.2,71.4,69.5,63.4,59.8,80,63,34,29.80,29.71,12,2,12,0.00
2013-6-17,89.4,75.6,68.4,74.6,68.4,61.1,93,79,45,29.76,29.62,19,4,19,0.92
2013-6-18,87.6,76.2,66.6,65.7,62.1,57.1,92,65,37,29.79,29.65,13,4,13,0.00
2013-6-19,91.8,79.7,69.6,70.6,65.1,59.9,84,63,38,29.82,29.74,11,3,11,0.00
2013-6-20,79.9,71.5,67.6,66.4,63.7,62.5,87,77,58,29.88,29.82,3,1,3,0.00
2013-6-21,94.6,87.4,69.4,72.2,64.4,58.0,86,49,32,29.94,29.82,20,7,20,0.00
2013-6-22,95.9,78.7,70.9,71.4,66.1,55.5,85,68,31,29.91,29.79,18,4,18,0.00
2013-6-23,95.4,81.9,68.9,69.7,63.2,57.9,82,56,32,29.88,29.76,17,5,17,0.00
2013-6-24,97.2,83.4,70.9,72.2,65.0,56.2,84,57,32,29.88,29.79,18,4,18,0.00
2013-6-25,96.6,84.9,75.4,72.5,66.3,59.6,80,56,33,29.85,29.68,16,6,16,0.00
2013-6-26,96.1,85.1,74.3,71.7,65.7,60.0,80,55,32,29.74,29.62,24,7,24,0.00
2013-6-27,100.9,86.0,76.1,73.1,67.1,59.4,72,55,33,29.71,29.62,15,5,15,0.00
2013-6-28,91.8,81.6,71.4,72.0,62.8,53.4,89,57,29,29.68,29.53,29,5,29,0.21
2013-6-29,90.1,78.2,70.7,59.8,54.5,42.2,64,47,20,29.59,29.50,18,6,18,0.00
2013-6-30,83.5,71.8,65.3,62.5,57.7,51.5,80,63,36,29.68,29.53,18,6,18,0.12
2013-7-1,77.0,69.1,64.9,63.2,57.8,51.7,88,69,43,29.74,29.62,14,6,14,0.00
2013-7-2,84.2,71.9,63.1,57.3,54.2,51.8,73,55,36,29.85,29.71,17,5,17,0.00
2013-7-3,84.4,70.6,59.0,58.2,52.9,44.3,80,58,26,29.91,29.79,14,4,14,0.00
2013-7-4,90.7,76.3,60.8,62.7,55.0,45.5,80,52,23,29.85,29.74,12,4,12,0.00
2013-7-5,90.5,78.7,68.0,69.1,62.4,55.1,83,59,38,29.85,29.76,14,4,14,0.00
2013-7-6,92.7,79.1,67.5,69.0,62.1,57.0,79,59,32,29.85,29.76,18,4,18,0.00
2013-7-7,96.4,81.4,67.6,72.2,64.3,59.1,84,59,32,29.88,29.79,14,4,14,0.00
2013-7-8,99.0,82.7,69.6,73.7,66.2,59.4,85,61,28,29.91,29.82,14,4,14,0.04
2013-7-9,99.1,85.7,73.2,74.3,67.4,62.6,86,58,33,29.91,29.76,15,5,15,0.00
2013-7-10,97.9,87.1,78.4,70.2,65.1,58.4,68,50,29,29.79,29.68,10,4,10,0.00
2013-7-11,93.2,80.1,72.7,71.4,60.5,50.3,76,54,27,29.79,29.71,18,3,18,0.00
2013-7-12,87.8,76.9,66.7,54.9,49.3,40.1,59,40,20,29.85,29.76,14,4,14,0.00
2013-7-13,88.3,76.5,63.1,59.0,50.9,43.5,70,44,23,29.82,29.76,13,4,13,0.00
2013-7-14,94.1,78.6,65.8,65.6,58.9,51.9,72,53,29,29.88,29.79,17,5,17,0.00
2013-7-19,91.4,83.5,75.7,66.8,64.0,61.3,73,53,39,29.76,29.74,14,4,14,0.00
2013-7-20,96.8,83.0,72.1,72.6,65.1,57.2,86,58,35,29.76,29.62,17,4,17,0.12
2013-7-21,85.1,77.6,71.4,78.6,73.6,58.3,95,88,46,29.76,29.65,9,3,9,0.29
2013-7-22,91.8,81.7,70.7,79.3,69.8,64.5,98,70,43,29.71,29.62,14,4,14,22.61
2013-7-23,88.2,79.3,69.1,80.3,70.6,63.5,98,77,51,29.79,29.62,25,5,25,0.80
2013-7-24,86.0,76.6,70.0,72.8,66.3,59.7,91,72,49,29.79,29.65,15,4,15,0.00
2013-7-25,81.5,72.5,63.7,59.7,54.5,48.9,76,55,34,29.88,29.79,14,4,14,0.00
2013-7-26,86.2,71.6,61.7,64.8,59.9,55.7,81,68,42,29.88,29.76,14,3,14,0.00
2013-7-27,86.5,75.7,69.4,65.1,59.7,50.5,77,60,33,29.79,29.71,14,5,14,0.00
2013-7-28,80.8,71.5,63.9,59.3,54.2,49.2,72,56,35,29.85,29.76,10,3,10,0.00
2013-7-29,87.3,75.0,66.4,65.1,59.0,55.8,76,60,36,29.94,29.85,13,3,13,0.00
2013-7-30,80.4,74.3,70.9,78.7,69.4,60.9,98,85,69,29.91,29.79,14,4,14,0.99
2013-7-31,91.0,80.9,73.9,80.3,74.3,71.2,96,82,55,29.79,29.74,11,3,11,0.00
2013-8-1,85.6,78.1,71.1,72.1,65.7,59.9,88,68,44,29.88,29.76,10,3,10,0.00
2013-8-2,90.1,78.3,66.7,73.1,66.3,62.4,89,69,45,29.82,29.74,14,4,14,0.00
2013-8-3,84.7,76.9,73.2,74.1,69.2,66.0,91,78,57,29.88,29.71,10,3,10,0.17
2013-8-4,88.0,77.6,71.4,71.2,67.2,63.2,89,72,48,29.91,29.82,9,3,9,0.00
2013-8-5,79.9,74.3,70.3,76.0,69.9,64.7,93,86,78,29.85,29.68,8,3,9,0.20
2013-8-6,82.2,75.9,71.1,79.5,74.0,70.5,98,94,87,29.82,29.65,13,3,13,1.04
2013-8-7,86.0,78.8,74.5,76.0,73.3,70.9,98,84,67,29.76,29.65,14,3,14,0.00
2013-8-8,89.6,80.1,74.5,79.9,74.3,70.9,96,83,63,29.76,29.65,14,3,14,0.08
2013-8-9,87.8,78.6,71.4,76.5,70.9,66.8,94,78,53,29.82,29.68,22,3,22,0.38
2013-8-10,80.1,75.7,70.0,77.9,72.6,67.4,97,90,79,29.91,29.79,14,2,14,1.62
2013-8-11,75.0,75.0,75.0,71.6,71.6,71.6,89,89,89,29.91,29.82,12,2,12,0.24
2013-8-12,79.7,75.7,75.0,71.6,69.3,57.5,89,82,47,29.85,29.71,14,4,14,0.00
2013-8-13,83.5,78.7,73.6,68.0,63.1,58.4,66,59,47,29.82,29.74,12,3,12,0.00
2013-8-14,74.5,71.1,64.2,62.7,49.1,41.9,82,48,32,29.91,29.79,17,5,17,0.00
2013-8-15,75.9,67.2,58.6,56.0,49.6,44.2,75,55,33,29.91,29.79,11,4,11,0.00
2013-8-16,78.1,70.1,61.7,58.9,55.7,52.5,77,61,43,29.88,29.79,13,5,13,0.00
2013-8-17,79.9,72.0,66.2,65.4,61.5,57.9,81,70,53,29.91,29.82,13,4,13,0.00
2013-8-18,79.2,72.3,68.2,68.7,64.6,61.3,88,77,57,29.91,29.82,11,3,11,0.00
2013-8-19,83.3,74.5,66.2,71.1,62.6,56.5,89,69,41,29.91,29.79,12,3,12,0.00
2013-8-20,86.2,77.0,68.2,71.8,64.5,59.0,87,67,42,29.91,29.79,11,3,11,0.00
2013-8-21,87.6,78.8,69.8,75.7,65.6,59.2,86,67,39,29.94,29.82,10,2,10,0.00
2013-8-22,90.0,80.2,72.9,76.6,68.5,61.8,87,69,41,29.91,29.79,10,3,10,0.00
2013-8-23,90.7,80.2,72.7,69.1,65.6,60.1,84,64,37,29.85,29.76,9,3,9,0.00
2013-8-24,88.2,76.5,73.8,67.4,66.4,63.5,79,72,44,29.94,29.82,10,3,10,0.00
2013-8-25,90.0,80.5,76.6,75.9,68.9,66.5,80,68,49,30.03,29.94,16,4,16,0.00
2013-8-26,89.1,79.1,72.7,73.8,68.1,62.2,86,71,43,30.03,29.91,14,3,14,0.00
2013-8-27,90.0,79.3,70.9,69.2,64.9,59.5,85,64,38,29.91,29.82,11,3,11,0.00
2013-8-28,89.6,80.2,72.3,70.1,63.9,57.9,79,60,35,29.88,29.79,10,3,10,0.00
2013-8-29,91.8,81.4,75.6,67.2,63.7,55.6,69,56,31,29.85,29.76,10,4,10,0.00
2013-8-30,92.5,83.6,75.0,72.8,65.9,61.2,77,57,36,29.79,29.68,14,3,14,0.00
2013-8-31,93.7,85.0,76.1,72.2,65.8,62.6,74,54,37,29.71,29.59,12,4,12,0.00
2013-9-1,86.7,81.0,76.8,72.6,68.3,64.3,79,66,49,29.71,29.59,17,4,17,0.00
2013-9-2,88.3,80.1,74.7,73.0,66.4,28.9,84,65,39,29.74,29.62,14,4,14,0.00
2013-9-3,84.0,75.8,67.1,61.1,52.9,38.1,71,48,21,29.85,29.71,15,4,15,0.00
2013-9-4,84.2,73.4,63.5,64.9,54.9,48.8,75,55,30,29.94,29.82,10,3,10,0.00
2013-9-5,84.7,73.7,63.7,64.2,55.9,49.4,80,57,30,29.97,29.88,10,3,10,0.00
2013-9-6,87.3,76.7,67.8,67.3,59.7,53.5,78,58,33,29.94,29.82,9,3,9,0.00
2013-9-7,89.8,78.1,67.6,70.5,60.3,53.4,79,58,30,29.85,29.74,12,3,12,0.00
2013-9-8,93.2,81.4,70.3,70.5,63.7,55.1,76,57,28,29.76,29.68,12,3,12,0.00
2013-9-9,95.2,83.2,74.3,72.8,65.8,57.2,79,59,29,29.79,29.71,14,3,14,0.00
2013-9-10,94.3,83.3,74.3,72.8,62.8,53.7,79,54,27,29.91,29.79,15,3,15,0.00
2013-9-11,92.3,81.6,74.7,73.1,65.8,59.6,77,60,35,29.94,29.82,11,3,11,0.00
2013-9-12,91.2,79.7,73.9,72.0,65.6,58.8,79,64,36,29.85,29.74,13,3,13,0.00
2013-9-13,79.0,73.0,64.9,64.7,46.4,38.2,69,40,25,29.85,29.76,15,5,15,0.00
2013-9-14,74.7,65.6,57.7,51.3,41.4,32.7,69,44,22,29.91,29.79,14,3,14,0.00
2013-9-15,82.0,60.0,53.2,57.5,44.5,38.6,73,59,22,29.88,29.82,11,2,11,0.00
2013-9-16,81.0,71.6,63.1,61.8,56.2,50.6,72,59,41,29.97,29.85,12,4,12,0.00
2013-9-17,84.9,75.4,67.8,64.7,59.7,53.1,77,60,35,29.97,29.82,12,3,12,0.00
2013-9-18,88.5,78.3,70.3,69.9,63.1,56.6,77,61,35,29.88,29.76,15,4,15,0.00
2013-9-19,90.5,80.0,72.3,71.0,63.7,56.1,77,60,33,29.85,29.71,16,5,16,0.00
2013-9-20,76.5,74.7,73.8,67.5,65.7,61.8,78,74,63,29.76,29.62,9,4,9,0.54
2013-9-21,74.7,71.4,62.4,67.0,53.7,41.0,78,56,31,29.74,29.65,15,6,15,0.04
2013-9-22,75.4,65.3,55.8,51.2,44.7,38.0,72,50,27,29.76,29.68,12,4,12,0.00
2013-9-23,78.1,66.6,55.2,57.0,49.9,45.4,77,57,33,29.76,29.68,14,3,14,0.00
2013-9-24,83.7,73.0,64.4,69.0,61.9,53.6,77,69,48,29.71,29.59,12,4,12,0.00
2013-9-25,80.1,75.2,69.3,66.6,61.9,53.1,77,65,40,29.65,29.56,14,4,14,0.00
2013-9-26,83.5,73.0,68.5,63.8,59.3,51.2,77,65,33,29.76,29.65,12,3,12,0.00
2013-9-27,84.0,73.5,69.3,63.6,57.4,51.1,70,59,33,29.85,29.76,14,3,14,0.00
2013-9-28,84.0,72.9,64.2,63.2,56.1,51.4,80,58,34,29.88,29.76,20,5,20,0.00
2013-9-29,72.0,69.4,68.9,61.0,59.8,55.4,76,72,57,29.82,29.74,14,5,14,0.17
2013-9-30,81.0,77.3,76.1,76.0,75.0,71.6,98,93,81,29.76,29.71,12,4,12,0.00
2013-10-1,76.3,76.3,76.3,75.7,75.7,75.7,98,98,98,29.82,29.74,11,4,11,0.08
2013-10-2,76.3,76.3,76.3,75.7,75.7,75.7,98,98,98,29.88,29.79,12,2,12,0.08
2013-10-3,76.3,76.3,76.3,75.7,75.7,75.7,98,98,98,29.82,29.71,16,4,16,0.05
2013-10-4,76.3,76.3,76.3,75.7,75.7,75.7,98,98,98,29.82,29.74,20,5,20,0.00
2013-10-5,76.3,76.3,76.3,75.7,75.7,75.7,98,98,98,29.79,29.65,17,6,17,0.46
2013-10-6,76.3,74.0,49.3,75.7,70.9,36.5,98,92,34,29.79,29.68,11,8,11,0.28
2013-10-7,51.6,38.1,34.3,39.7,34.8,32.2,97,89,63,29.91,29.74,14,4,14,0.00
2013-10-8,34.3,34.3,34.3,33.6,33.6,33.6,97,97,97,29.97,29.85,14,3,14,0.00
2013-10-9,34.3,34.3,34.3,33.6,33.6,33.6,97,97,97,29.88,29.85,4,2,4,0.00
2013-10-13,83.8,82.1,82.0,57.0,43.7,42.8,40,26,25,30.06,30.03,6,4,6,0.00
2013-10-14,82.0,69.3,51.3,58.0,48.4,37.0,64,49,25,30.03,29.82,8,3,8,0.00
2013-10-15,71.1,71.1,71.1,57.8,57.8,57.8,63,63,63,29.82,29.68,11,3,11,0.33
2013-10-16,71.1,71.1,71.1,57.8,57.8,57.8,63,63,63,29.85,29.74,10,3,10,0.21
2013-10-17,71.1,71.1,71.1,57.8,57.8,57.8,63,63,63,29.82,29.76,12,3,12,0.08
2013-10-18,77.7,70.5,60.1,61.3,57.4,51.2,83,64,50,29.85,29.74,12,2,12,0.00
2013-10-19,59.9,52.5,47.1,54.7,47.2,37.8,92,83,47,29.88,29.71,14,5,14,0.13
2013-10-20,65.7,57.9,43.0,48.8,44.6,39.1,90,63,44,29.85,29.76,18,6,18,0.00
2013-10-21,69.8,55.7,45.9,54.3,47.6,40.4,90,76,49,29.82,29.76,17,4,17,0.04
2013-10-22,63.5,58.3,53.2,49.5,44.3,41.3,87,61,45,29.85,29.68,15,3,15,0.52
2013-10-23,56.3,50.3,44.8,43.0,37.9,35.4,71,62,53,29.94,29.76,14,5,14,0.00
2013-10-25,50.2,43.2,39.4,32.0,31.1,29.3,72,63,46,30.15,30.09,3,1,3,0.00
2013-10-26,65.3,51.0,38.7,48.0,39.2,30.3,80,65,48,30.09,29.85,17,4,17,0.00
2013-10-27,59.5,53.9,51.4,50.0,40.4,34.1,83,61,50,29.88,29.82,14,4,14,0.00
2013-10-29,69.1,66.9,65.3,64.9,64.4,63.5,95,92,86,29.88,29.85,9,4,9,0.00
2013-10-30,73.2,67.7,63.1,66.9,64.5,61.7,95,90,74,29.91,29.74,20,6,20,0.00
2013-10-31,71.2,67.0,59.4,68.3,64.2,51.3,98,91,65,29.74,29.29,29,9,29,0.67
2013-11-1,59.2,57.6,56.1,51.6,51.2,50.2,82,79,76,29.59,29.53,10,2,10,0.00
2013-11-2,58.1,51.3,47.3,38.6,37.8,36.5,70,60,46,29.97,29.88,12,3,12,0.00
2013-11-3,58.3,48.7,39.7,43.1,38.1,33.3,83,68,47,30.09,29.94,13,3,13,0.00
2013-11-4,59.0,52.8,46.0,50.9,45.8,39.3,86,77,61,30.03,29.94,17,3,17,0.00
2013-11-5,64.8,59.3,52.9,54.8,51.8,48.7,88,77,64,30.06,29.88,17,5,17,0.00
2013-11-6,61.3,55.5,46.4,60.8,51.1,36.4,98,86,68,30.06,29.79,26,8,26,0.24
2013-11-7,54.5,45.5,39.9,38.4,35.0,32.7,79,67,48,30.21,30.06,13,5,13,0.00
2013-11-8,58.3,46.6,40.8,41.5,36.8,33.7,78,69,47,30.18,29.97,12,3,12,0.00
2013-11-9,60.8,51.4,42.3,48.6,43.5,35.6,86,75,52,30.03,29.94,16,3,16,0.00
2013-11-10,60.3,52.4,44.6,47.9,39.4,34.4,89,63,43,30.18,30.03,17,3,17,0.00
2013-11-11,63.9,47.3,39.9,43.1,36.9,32.3,79,68,46,30.09,29.97,10,3,10,0.00
2013-11-13,43.7,34.8,27.9,25.1,20.4,14.8,65,55,45,30.50,30.21,11,3,11,0.00
2013-11-14,54.5,40.6,27.5,30.4,24.6,19.0,74,55,37,30.21,29.91,19,5,19,0.00
2013-11-21,58.3,56.3,55.9,57.7,55.4,54.5,98,97,95,29.94,29.88,6,1,6,0.25
2013-11-22,58.6,49.8,40.3,58.1,46.7,34.8,98,89,77,30.21,29.94,22,8,22,0.37
2013-11-23,44.1,38.4,27.0,35.8,23.9,9.4,84,58,37,30.41,30.21,22,10,22,0.00
2013-11-24,31.6,27.1,21.7,16.5,12.3,8.9,60,53,47,30.47,30.21,22,7,22,0.00
2013-11-25,34.7,33.2,31.5,29.7,22.6,16.0,88,66,52,30.21,29.94,8,2,8,0.13
2013-11-28,43.5,37.9,30.4,26.9,24.7,22.1,75,59,48,30.24,30.12,17,5,17,0.13
2013-11-29,48.9,33.3,26.4,35.0,26.3,21.4,87,75,55,30.33,30.18,9,2,9,0.00
2013-11-30,54.0,40.2,27.1,37.8,31.4,23.2,92,72,47,30.18,29.97,19,4,19,0.00
2013-12-1,56.8,49.6,38.5,46.6,41.6,31.9,85,74,63,29.97,29.71,10,2,10,0.00
2013-12-2,60.6,50.6,43.0,53.5,46.7,40.5,96,87,75,29.71,29.50,9,2,9,0.00
2013-12-3,60.6,54.2,48.2,58.1,53.0,47.1,98,96,86,29.56,29.44,17,2,17,0.00
2013-12-4,71.8,63.2,56.1,63.2,60.1,55.3,98,90,70,29.59,29.44,31,6,31,0.00
2013-12-5,64.0,42.4,31.8,60.6,34.9,24.9,95,76,55,29.97,29.59,23,8,23,0.29
2013-12-6,32.2,27.6,24.6,30.6,25.3,21.6,94,91,88,30.03,29.91,1,1,0,0.08
2013-12-7,23.7,21.2,18.3,14.4,11.2,7.8,77,65,58,30.41,30.15,14,2,14,0.00
2013-12-8,32.0,27.1,20.5,28.6,24.1,14.4,93,88,77,30.15,29.82,14,3,14,0.00
2013-12-9,34.9,31.7,29.3,28.8,25.8,20.7,91,79,65,30.09,29.94,11,4,11,0.00
2013-12-10,35.1,29.4,24.4,24.0,21.2,18.7,83,71,62,30.18,30.03,9,4,9,0.00
2013-12-11,39.4,27.6,22.3,31.6,21.7,18.2,90,79,54,30.24,30.12,17,3,17,0.00
2013-12-12,26.8,26.4,25.5,18.6,18.4,18.0,74,71,70,30.18,30.15,5,2,5,0.00
2013-12-13,39.9,32.7,24.8,33.7,26.5,18.0,94,78,61,30.15,29.71,14,3,14,0.79
2013-12-14,39.9,36.5,34.0,37.9,33.3,27.2,98,88,76,29.94,29.59,17,4,17,0.70
2013-12-15,39.9,34.8,32.2,31.8,28.1,25.1,89,76,66,30.06,29.94,14,5,14,0.00
2013-12-16,54.0,43.8,34.5,39.0,35.1,31.1,88,73,53,29.94,29.82,12,6,13,0.04
2013-12-17,53.1,42.8,34.2,38.4,32.2,26.9,88,67,48,30.09,29.88,20,3,20,0.00
2013-12-18,53.4,41.6,28.4,40.9,33.2,23.2,87,73,51,30.12,29.85,21,6,21,0.00
2013-12-19,57.9,50.7,42.3,54.7,45.9,37.7,90,84,78,29.85,29.68,24,8,24,0.00
2013-12-20,66.9,62.2,57.9,63.9,60.0,54.7,98,93,89,29.71,29.56,18,8,18,0.33
2013-12-21,65.7,58.2,47.8,65.1,57.3,47.3,98,97,89,29.56,29.41,31,9,31,1.95
2013-12-22,43.0,40.8,35.1,35.8,31.6,24.9,76,69,65,30.03,29.76,18,7,18,0.00
2013-12-23,35.6,33.1,29.8,25.9,21.0,17.1,72,61,51,30.30,30.03,15,6,15,0.00
2013-12-24,29.7,24.5,21.0,17.1,13.0,9.6,74,61,52,30.41,30.18,12,4,12,0.00
2013-12-25,43.3,31.5,21.6,30.4,22.7,15.4,84,70,56,30.18,30.06,15,4,15,0.00
2013-12-26,43.5,31.6,26.2,32.3,26.0,22.3,89,80,57,30.24,30.12,12,2,12,0.00
2013-12-27,51.3,40.9,27.1,39.8,32.1,23.5,90,72,52,30.24,30.12,17,4,17,0.00
2013-12-28,46.2,32.5,30.0,40.0,28.6,26.6,88,85,73,30.12,29.91,9,1,9,0.00
2013-12-29,39.6,34.0,28.8,29.1,21.4,15.5,66,59,56,30.03,29.88,21,10,21,0.00
2013-12-30,32.9,27.1,23.2,18.1,15.1,13.6,73,60,53,30.15,30.03,15,4,15,0.00
2013-12-31,41.7,30.5,21.6,28.2,22.6,15.1,85,73,55,30.24,30.06,14,3,14,0.00
2014-1-1,47.3,38.6,27.5,38.6,31.9,24.0,92,77,62,30.06,29.74,14,5,14,0.00
2014-1-2,46.0,32.3,25.2,39.6,20.5,8.3,87,63,44,30.18,29.71,24,9,24,0.00